地図

経路データ

SID SEASON NUMBER BASIN SUBBASIN NAME ISO_TIME NATURE LAT LON WMO_WIND WMO_PRES WMO_AGENCY TRACK_TYPE DIST2LAND LANDFALL IFLAG USA_AGENCY USA_ATCF_ID USA_LAT USA_LON USA_RECORD USA_STATUS USA_WIND USA_PRES USA_SSHS USA_R34_NE USA_R34_SE USA_R34_SW USA_R34_NW USA_R50_NE USA_R50_SE USA_R50_SW USA_R50_NW USA_R64_NE USA_R64_SE USA_R64_SW USA_R64_NW USA_POCI USA_ROCI USA_RMW USA_EYE TOKYO_LAT TOKYO_LON TOKYO_GRADE TOKYO_WIND TOKYO_PRES TOKYO_R50_DIR TOKYO_R50_LONG TOKYO_R50_SHORT TOKYO_R30_DIR TOKYO_R30_LONG TOKYO_R30_SHORT TOKYO_LAND CMA_LAT CMA_LON CMA_CAT CMA_WIND CMA_PRES HKO_LAT HKO_LON HKO_CAT HKO_WIND HKO_PRES NEWDELHI_LAT NEWDELHI_LON NEWDELHI_GRADE NEWDELHI_WIND NEWDELHI_PRES NEWDELHI_CI NEWDELHI_DP NEWDELHI_POCI REUNION_LAT REUNION_LON REUNION_TYPE REUNION_WIND REUNION_PRES REUNION_TNUM REUNION_CI REUNION_RMW REUNION_R34_NE REUNION_R34_SE REUNION_R34_SW REUNION_R34_NW REUNION_R50_NE REUNION_R50_SE REUNION_R50_SW REUNION_R50_NW REUNION_R64_NE REUNION_R64_SE REUNION_R64_SW REUNION_R64_NW BOM_LAT BOM_LON BOM_TYPE BOM_WIND BOM_PRES BOM_TNUM BOM_CI BOM_RMW BOM_R34_NE BOM_R34_SE BOM_R34_SW BOM_R34_NW BOM_R50_NE BOM_R50_SE BOM_R50_SW BOM_R50_NW BOM_R64_NE BOM_R64_SE BOM_R64_SW BOM_R64_NW BOM_ROCI BOM_POCI BOM_EYE BOM_POS_METHOD BOM_PRES_METHOD NADI_LAT NADI_LON NADI_CAT NADI_WIND NADI_PRES WELLINGTON_LAT WELLINGTON_LON WELLINGTON_WIND WELLINGTON_PRES DS824_LAT DS824_LON DS824_STAGE DS824_WIND DS824_PRES TD9636_LAT TD9636_LON TD9636_STAGE TD9636_WIND TD9636_PRES TD9635_LAT TD9635_LON TD9635_WIND TD9635_PRES TD9635_ROCI NEUMANN_LAT NEUMANN_LON NEUMANN_CLASS NEUMANN_WIND NEUMANN_PRES MLC_LAT MLC_LON MLC_CLASS MLC_WIND MLC_PRES USA_GUST BOM_GUST BOM_GUST_PER REUNION_GUST REUNION_GUST_PER USA_SEAHGT USA_SEARAD_NE USA_SEARAD_SE USA_SEARAD_SW USA_SEARAD_NW STORM_SPEED STORM_DIR
1998274N19254 1998 74 EP MM NOT_NAMED 1998-09-30 12:00:00 NR 19.4000 -106.200 main 99 99 O_____________ jtwc_ep EP121998 19.4000 -106.200 20 -1 6 287
1998274N19254 1998 74 EP MM NOT_NAMED 1998-09-30 15:00:00 NR 19.4903 -106.520 main 118 118 P_____________ EP121998 19.4903 -106.520 20 -1 6 289
1998274N19254 1998 74 EP MM NOT_NAMED 1998-09-30 18:00:00 NR 19.6000 -106.800 main 143 143 O_____________ jtwc_ep EP121998 19.6000 -106.800 20 -1 6 297
1998274N19254 1998 74 EP MM NOT_NAMED 1998-09-30 21:00:00 NR 19.7420 -107.040 main 156 156 P_____________ EP121998 19.7420 -107.040 20 -1 6 298
1998274N19254 1998 74 EP MM NOT_NAMED 1998-10-01 00:00:00 NR 19.9000 -107.400 main 186 186 O_____________ jtwc_ep EP121998 19.9000 -107.400 20 -1 11 288
1998274N19254 1998 74 EP MM NOT_NAMED 1998-10-01 03:00:00 NR 20.0661 -108.130 main 252 252 P_____________ EP121998 20.0661 -108.130 22 -1 14 283
1998274N19254 1998 74 EP MM NOT_NAMED 1998-10-01 06:00:00 NR 20.2000 -108.800 main 319 302 O_____________ jtwc_ep EP121998 20.2000 -108.800 25 -1 8 284
1998274N19254 1998 74 EP MM NOT_NAMED 1998-10-01 09:00:00 NR 20.2645 -109.005 main 302 302 P_____________ EP121998 20.2570 -109.005 25 -1 2 299
1998274N19254 1998 74 EP MM NOT_NAMED 1998-10-01 12:00:00 NR 20.3000 -109.000 main 302 302 O_____________ jtwc_ep EP121998 20.3000 -109.000 25 -1 1 350
1998274N19254 1998 74 EP MM NOT_NAMED 1998-10-01 15:00:00 NR 20.3425 -109.023 main 302 291 P_____________ EP121998 20.4000 -109.023 27 -1 1 0
1998274N19254 1998 74 EP MM NOT_NAMED 1998-10-01 18:00:00 TS 20.4333 -109.000 30 hurdat_epa main 291 280 O_____________ hurdat_epa EP121998 20.5000 -109.000 TD 30 -1 2 24
1998274N19254 1998 74 EP MM NOT_NAMED 1998-10-01 21:00:00 TS 20.5200 -108.941 main 283 273 P_____________ EP121998 20.5575 -108.943 TD 30 -1 2 31
1998274N19254 1998 74 EP MM NOT_NAMED 1998-10-02 00:00:00 TS 20.6000 -108.900 30 hurdat_epa main 273 262 O_____________ hurdat_epa EP121998 20.6000 -108.900 TD 30 -1 2 16
1998274N19254 1998 74 EP MM NOT_NAMED 1998-10-02 03:00:00 TS 20.6767 -108.911 main 262 259 P_____________ EP121998 20.6575 -108.927 TD 30 -1 1 339
1998274N19254 1998 74 EP MM NOT_NAMED 1998-10-02 06:00:00 TS 20.7333 -108.967 30 hurdat_epa main 259 256 O_____________ hurdat_epa EP121998 20.7000 -109.000 TD 30 -1 2 298
1998274N19254 1998 74 EP MM NOT_NAMED 1998-10-02 09:00:00 TS 20.7483 -109.057 main 256 253 P_____________ EP121998 20.7150 -109.092 TD 30 -1 2 270
1998274N19254 1998 74 EP MM NOT_NAMED 1998-10-02 12:00:00 TS 20.7333 -109.167 30 hurdat_epa main 253 251 O_____________ hurdat_epa EP121998 20.7000 -109.200 TD 30 -1 2 248
1998274N19254 1998 74 EP MM NOT_NAMED 1998-10-02 15:00:00 TS 20.6675 -109.272 main 251 249 P_____________ EP121998 20.6200 -109.308 TD 30 -1 2 248
1998274N19254 1998 74 EP MM NOT_NAMED 1998-10-02 18:00:00 TS 20.6545 -109.373 30 hurdat_epa main 249 238 O_____________ hurdat_epa EP121998 20.6000 -109.400 TD 30 -1 2 313
1998274N19254 1998 74 EP MM NOT_NAMED 1998-10-02 21:00:00 TS 20.8160 -109.440 main 238 214 P_____________ EP121998 20.7700 -109.450 TD 30 -1 4 342
1998274N19254 1998 74 EP MM NOT_NAMED 1998-10-03 00:00:00 TS 21.0333 -109.500 30 hurdat_epa main 214 191 O_____________ hurdat_epa EP121998 21.0000 -109.500 TD 30 -1 4 339
1998274N19254 1998 74 EP MM NOT_NAMED 1998-10-03 03:00:00 TS 21.1725 -109.585 main 191 179 P_____________ EP121998 21.1725 -109.585 TD 30 -1 3 325
1998274N19254 1998 74 EP MM NOT_NAMED 1998-10-03 06:00:00 TS 21.3000 -109.700 30 hurdat_epa main 179 167 O_____________ hurdat_epa EP121998 21.3000 -109.700 TD 30 -1 3 309
1998274N19254 1998 74 EP MM NOT_NAMED 1998-10-03 09:00:00 TS 21.3675 -109.843 main 167 167 P_____________ EP121998 21.3675 -109.843 TD 27 -1 3 290
1998274N19254 1998 74 EP MM NOT_NAMED 1998-10-03 12:00:00 TS 21.4000 -110.000 25 hurdat_epa main 167 O_____________ hurdat_epa EP121998 21.4000 -110.000 TD 25 -1 3 282

IBTrACS Databaseについて

本データベースは、米国NOAAが公開する1842年以降の世界の熱帯低気圧のベストトラックデータアーカイブInternational Best Track Archive for Climate Stewardship (IBTrACS)を、ウェブで閲覧しやすい形式に変換したものです。

最終更新日:2021-10-08